Time;durP1;ratioP1;P1;durP2;ratioP2;P2;SDS_P1;SDS_P2;PMS_P1;PMS_P2;Temp;Humidity;BMP_temperature;BMP_pressure;BME280_temperature;BME280_humidity;BME280_pressure;Samples;Min_cycle;Max_cycle;Signal;HPM_P1;HPM_P2
2022/07/01 00:00:45;;;;;;;8.15;4.50;;;;;;;20.17;85.31;96938.22;5063133;28;20510;-63
2022/07/01 00:03:11;;;;;;;7.00;4.68;;;;;;;19.74;85.41;96903.75;5064069;28;20088;-63
2022/07/01 00:05:38;;;;;;;4.93;3.60;;;;;;;19.16;85.80;96821.84;5063865;28;20534;-64
2022/07/01 00:08:05;;;;;;;6.05;4.70;;;;;;;19.83;87.15;96929.25;5062931;28;20053;-64
2022/07/01 00:10:32;;;;;;;8.20;4.18;;;;;;;19.75;87.81;96933.44;5064314;28;20487;-64
2022/07/01 00:12:59;;;;;;;7.95;5.18;;;;;;;19.78;87.56;96924.13;5062812;28;20143;-64
2022/07/01 00:15:26;;;;;;;7.60;4.85;;;;;;;19.62;86.96;96912.84;5062446;28;20296;-64
2022/07/01 00:17:52;;;;;;;8.05;4.30;;;;;;;19.86;86.90;96950.88;5063073;28;20132;-64
2022/07/01 00:20:20;;;;;;;7.55;4.30;;;;;;;19.62;87.09;96907.25;5062385;28;20053;-65
2022/07/01 00:22:47;;;;;;;5.82;4.40;;;;;;;19.26;87.25;96867.78;5062728;28;20056;-63
2022/07/01 00:25:13;;;;;;;5.55;3.88;;;;;;;19.89;86.59;96938.78;5062415;28;20594;-64
2022/07/01 00:27:41;;;;;;;6.28;4.13;;;;;;;19.63;86.85;96897.56;5062813;28;20052;-63
2022/07/01 00:30:09;;;;;;;12.02;4.97;;;;;;;19.92;86.03;96937.91;5064663;28;20128;-64
2022/07/01 00:32:37;;;;;;;5.72;4.30;;;;;;;19.22;85.93;96828.53;5067960;28;20075;-64
2022/07/01 00:35:04;;;;;;;7.68;4.30;;;;;;;19.78;86.16;96932.56;5066895;28;20052;-63
2022/07/01 00:37:31;;;;;;;7.35;4.25;;;;;;;18.82;87.12;96804.47;5066994;28;20052;-64
2022/07/01 00:39:58;;;;;;;8.13;3.90;;;;;;;19.48;88.31;96925.97;5067987;28;20114;-64
2022/07/01 00:42:24;;;;;;;5.18;3.95;;;;;;;19.23;88.35;96875.06;5067622;28;20049;-63
2022/07/01 00:44:51;;;;;;;7.30;4.40;;;;;;;19.21;88.20;96877.50;5066401;28;20093;-64
2022/07/01 00:47:18;;;;;;;9.25;4.10;;;;;;;19.45;88.11;96921.22;5066382;28;20463;-63
2022/07/01 00:49:45;;;;;;;5.00;3.88;;;;;;;18.55;88.24;96778.53;5066484;28;20056;-63
2022/07/01 00:52:11;;;;;;;10.25;4.50;;;;;;;19.44;88.04;96930.84;5067354;28;20045;-63
2022/07/01 00:54:40;;;;;;;8.00;4.07;;;;;;;18.55;88.43;96783.34;5066158;28;20540;-64
2022/07/01 00:57:11;;;;;;;6.43;4.38;;;;;;;19.15;88.99;96901.69;5066060;28;20083;-65
2022/07/01 00:59:39;;;;;;;8.10;3.85;;;;;;;19.31;88.88;96926.31;5067520;28;20403;-64
2022/07/01 01:02:08;;;;;;;7.97;4.50;;;;;;;19.30;89.20;96908.66;5066109;28;20494;-64
2022/07/01 01:04:35;;;;;;;11.38;4.38;;;;;;;19.28;89.96;96905.47;5067670;28;20055;-65
2022/07/01 01:07:03;;;;;;;6.03;4.65;;;;;;;19.02;90.14;96858.63;5067990;28;20056;-64
2022/07/01 01:09:30;;;;;;;7.18;5.10;;;;;;;18.98;90.98;96862.72;5066991;28;20250;-64
2022/07/01 01:11:57;;;;;;;7.90;5.47;;;;;;;19.29;92.19;96901.44;5066001;28;20060;-64
2022/07/01 01:14:25;;;;;;;7.15;5.68;;;;;;;19.39;93.09;96902.47;5067233;28;20076;-64
2022/07/01 01:16:52;;;;;;;7.57;5.35;;;;;;;19.45;92.18;96915.59;5067509;28;20060;-64
2022/07/01 01:19:19;;;;;;;7.13;4.90;;;;;;;19.54;90.95;96915.00;5067045;28;20055;-64
2022/07/01 01:21:46;;;;;;;11.23;5.53;;;;;;;19.13;91.08;96859.19;5067967;28;20063;-65
2022/07/01 01:24:13;;;;;;;9.23;4.95;;;;;;;18.89;90.97;96815.53;5066081;28;20062;-65
2022/07/01 01:26:40;;;;;;;7.25;5.40;;;;;;;18.91;89.71;96835.56;5067025;28;20250;-64
2022/07/01 01:29:08;;;;;;;5.13;4.60;;;;;;;19.39;89.19;96888.41;5066217;28;20075;-64
2022/07/01 01:31:35;;;;;;;9.45;4.72;;;;;;;18.59;88.46;96775.66;5067064;28;20050;-65
2022/07/01 01:34:03;;;;;;;12.15;5.10;;;;;;;19.55;88.40;96919.41;5065829;28;20135;-66
2022/07/01 01:36:30;;;;;;;7.18;4.85;;;;;;;19.34;88.79;96886.91;5067041;28;20052;-64
2022/07/01 01:39:18;;;;;;;8.88;3.90;;;;;;;19.27;87.72;96863.75;5065908;28;20051;-64
2022/07/01 01:41:44;;;;;;;8.32;4.25;;;;;;;19.19;87.17;96863.09;5066089;28;20499;-64
2022/07/01 01:44:12;;;;;;;7.95;4.28;;;;;;;19.37;87.71;96930.19;5065084;28;20514;-64
2022/07/01 01:46:39;;;;;;;5.13;4.20;;;;;;;19.46;87.06;96928.41;5065165;28;20052;-64
2022/07/01 01:49:06;;;;;;;6.72;4.10;;;;;;;19.21;87.35;96905.59;5065410;28;20141;-64
2022/07/01 01:51:34;;;;;;;5.85;4.07;;;;;;;19.43;87.35;96926.47;5066851;28;20135;-64
2022/07/01 01:54:01;;;;;;;5.38;3.88;;;;;;;19.40;87.30;96958.22;5058058;28;20063;-65
2022/07/01 01:56:28;;;;;;;5.70;4.03;;;;;;;19.32;87.02;96925.88;5077348;28;20059;-65
2022/07/01 01:58:54;;;;;;;7.47;4.03;;;;;;;18.74;87.70;96845.13;5065174;28;20059;-64
2022/07/01 02:01:21;;;;;;;6.72;3.95;;;;;;;19.26;87.95;96930.38;5064616;28;20059;-64
2022/07/01 02:03:49;;;;;;;5.22;3.92;;;;;;;18.84;87.58;96874.97;5065151;28;20057;-64
2022/07/01 02:06:19;;;;;;;7.47;3.67;;;;;;;19.15;87.97;96938.19;5065159;28;20316;-65
2022/07/01 02:08:46;;;;;;;18.40;4.88;;;;;;;18.88;88.07;96906.59;5064904;28;20056;-65
2022/07/01 02:11:12;;;;;;;5.90;4.20;;;;;;;18.79;88.90;96903.56;5065016;28;20528;-64
2022/07/01 02:13:40;;;;;;;6.65;3.72;;;;;;;19.00;89.07;96945.28;5064631;28;20060;-64
2022/07/01 02:16:07;;;;;;;4.68;3.97;;;;;;;18.61;88.99;96877.81;5064382;28;20254;-65
2022/07/01 02:18:34;;;;;;;5.10;3.85;;;;;;;19.06;88.57;96949.19;5066201;28;20515;-64
2022/07/01 02:21:00;;;;;;;5.20;4.20;;;;;;;18.73;88.69;96902.44;5066076;28;20056;-65
2022/07/01 02:23:33;;;;;;;8.23;4.63;;;;;;;17.92;88.48;96790.78;5066180;28;20496;-64
2022/07/01 02:25:59;;;;;;;7.93;3.88;;;;;;;19.01;88.05;96952.50;5064291;28;20049;-64
2022/07/01 02:28:26;;;;;;;5.28;4.07;;;;;;;18.82;89.03;96956.03;5066163;28;20052;-64
2022/07/01 02:30:53;;;;;;;6.55;3.92;;;;;;;18.59;90.69;96944.78;5065859;28;20067;-65
2022/07/01 02:33:21;;;;;;;8.50;4.30;;;;;;;18.62;90.73;96949.53;5065678;28;20503;-65
2022/07/01 02:35:48;;;;;;;11.30;6.28;;;;;;;17.44;91.41;96770.66;5064102;28;20526;-64
2022/07/01 02:38:15;;;;;;;14.35;7.97;;;;;;;18.55;91.98;96955.28;5065966;28;20919;-64
2022/07/01 02:40:42;;;;;;;16.80;9.00;;;;;;;18.15;92.36;96894.53;5065628;28;20063;-64
2022/07/01 02:43:09;;;;;;;11.75;7.07;;;;;;;18.44;92.45;96923.78;5065552;28;20049;-64
2022/07/01 02:45:35;;;;;;;7.53;5.60;;;;;;;18.71;91.44;96944.19;5065447;28;20056;-65
2022/07/01 02:48:02;;;;;;;7.95;4.90;;;;;;;18.35;91.67;96886.25;5064209;28;20057;-65
2022/07/01 02:50:29;;;;;;;11.18;5.18;;;;;;;18.28;91.45;96898.34;5063923;28;20056;-66
2022/07/01 02:52:56;;;;;;;7.07;4.82;;;;;;;17.44;90.98;96756.66;5065283;28;20101;-65
2022/07/01 02:55:23;;;;;;;9.05;4.18;;;;;;;18.52;89.65;96916.84;5064811;28;20061;-65
2022/07/01 02:57:51;;;;;;;5.30;3.88;;;;;;;18.47;88.83;96917.31;5063789;28;20064;-65
2022/07/01 03:00:19;;;;;;;6.32;3.92;;;;;;;18.65;88.98;96957.09;5063344;28;20075;-64
2022/07/01 03:02:47;;;;;;;7.60;4.30;;;;;;;18.58;89.61;96962.84;5065124;28;20485;-65
2022/07/01 03:05:14;;;;;;;6.30;4.15;;;;;;;18.12;90.20;96886.97;5064289;28;20049;-65
2022/07/01 03:07:42;;;;;;;6.95;4.20;;;;;;;18.54;90.36;96961.31;5064421;28;20102;-65
2022/07/01 03:10:09;;;;;;;9.52;4.57;;;;;;;18.43;89.88;96927.78;5064601;28;20052;-65
2022/07/01 03:12:38;;;;;;;7.47;4.72;;;;;;;18.71;88.65;96954.63;5063546;28;20052;-65
2022/07/01 03:15:10;;;;;;;6.97;4.70;;;;;;;18.28;88.52;96912.38;5063255;28;20495;-65
2022/07/01 03:17:39;;;;;;;7.03;5.00;;;;;;;18.76;87.93;96968.94;5063029;28;20060;-65
2022/07/01 03:20:08;;;;;;;7.32;4.55;;;;;;;18.63;89.11;96965.16;5064408;28;20056;-66
2022/07/01 03:22:36;;;;;;;7.38;4.75;;;;;;;18.81;88.86;96971.28;5064505;28;20056;-66
2022/07/01 03:25:04;;;;;;;11.43;5.05;;;;;;;18.80;87.98;96935.22;5064375;28;20474;-66
2022/07/01 03:27:31;;;;;;;7.18;4.90;;;;;;;18.96;87.16;96929.72;5063000;28;20044;-67
2022/07/01 03:29:58;;;;;;;7.43;4.43;;;;;;;18.28;86.33;96797.41;5062895;28;20053;-66
2022/07/01 03:32:26;;;;;;;4.95;3.60;;;;;;;19.09;85.18;96914.66;5062948;28;20064;-68
2022/07/01 03:34:53;;;;;;;8.55;4.13;;;;;;;19.34;85.40;96962.75;5063090;28;20070;-66
2022/07/01 03:37:21;;;;;;;5.20;4.55;;;;;;;19.12;84.39;96907.38;5062942;28;20059;-66
2022/07/01 03:39:48;;;;;;;5.10;4.30;;;;;;;19.18;82.99;96900.03;5062977;28;20056;-67
2022/07/01 03:42:16;;;;;;;7.90;4.88;;;;;;;19.70;82.96;96956.44;5064148;28;20062;-66
2022/07/01 03:44:44;;;;;;;5.32;4.30;;;;;;;19.57;82.75;96927.41;5062978;28;20049;-66
2022/07/01 03:47:11;;;;;;;7.03;3.88;;;;;;;19.15;81.91;96844.72;5063893;28;20541;-66
2022/07/01 03:49:37;;;;;;;4.28;3.88;;;;;;;19.58;81.80;96902.47;5064292;28;20049;-66
2022/07/01 03:52:05;;;;;;;6.28;4.88;;;;;;;19.59;82.52;96942.59;5064795;28;20064;-67
2022/07/01 03:54:38;;;;;;;8.88;6.55;;;;;;;19.49;82.64;96891.00;5064109;28;20250;-66
2022/07/01 03:57:08;;;;;;;10.27;6.43;;;;;;;19.85;83.54;96954.94;5062947;28;20142;-66
2022/07/01 03:59:39;;;;;;;8.27;6.28;;;;;;;19.77;83.13;96919.75;5063845;28;20053;-66
2022/07/01 04:02:07;;;;;;;8.80;5.00;;;;;;;19.50;82.71;96870.13;5064090;28;20160;-67
2022/07/01 04:04:35;;;;;;;8.05;3.97;;;;;;;19.30;82.64;96840.47;5062065;28;20086;-66
2022/07/01 04:07:06;;;;;;;7.25;3.92;;;;;;;19.10;81.57;96763.78;5062507;28;20137;-67
2022/07/01 04:09:32;;;;;;;14.30;9.40;;;;;;;20.42;80.32;96950.47;5064057;28;20044;-66
2022/07/01 04:11:59;;;;;;;5.85;4.40;;;;;;;19.60;79.56;96819.75;5062792;28;20083;-66
2022/07/01 04:14:26;;;;;;;8.75;4.07;;;;;;;20.08;79.31;96867.66;5063914;28;20052;-66
2022/07/01 04:16:53;;;;;;;7.75;3.63;;;;;;;20.48;80.08;96945.13;5061738;28;20059;-66
2022/07/01 04:19:20;;;;;;;6.88;3.85;;;;;;;20.40;79.49;96907.13;5063359;28;20497;-65
2022/07/01 04:24:33;;;;;;;6.90;4.50;;;;;;;20.87;78.54;96948.56;5063608;28;20501;-65
2022/07/01 04:27:00;;;;;;;4.43;3.55;;;;;;;21.14;77.43;96959.59;5064090;28;20061;-66
2022/07/01 04:29:31;;;;;;;6.25;3.78;;;;;;;21.25;77.44;96957.28;5063889;28;20071;-66
2022/07/01 04:31:58;;;;;;;6.25;4.40;;;;;;;21.43;76.75;96957.63;5061590;28;20055;-66
2022/07/01 04:34:25;;;;;;;4.68;3.75;;;;;;;21.64;76.05;96954.19;5062286;28;20068;-65
2022/07/01 04:36:52;;;;;;;5.88;4.45;;;;;;;21.82;75.34;96954.53;5062254;28;20056;-65
2022/07/01 04:39:18;;;;;;;5.32;4.13;;;;;;;22.00;74.95;96968.91;5062407;28;20041;-65
2022/07/01 04:42:01;;;;;;;6.65;4.03;;;;;;;22.17;74.45;96945.03;5063742;28;20053;-65
2022/07/01 04:44:32;;;;;;;7.15;4.40;;;;;;;22.39;73.57;96957.25;5062249;28;20139;-65
2022/07/01 04:47:00;;;;;;;7.30;4.13;;;;;;;22.56;72.38;96951.56;5062018;28;20548;-66
2022/07/01 04:49:28;;;;;;;9.57;4.78;;;;;;;22.68;71.41;96953.56;5063633;28;20590;-63
2022/07/01 04:51:55;;;;;;;6.13;4.68;;;;;;;22.45;71.32;96904.63;5062061;28;20052;-66
2022/07/01 04:54:22;;;;;;;6.82;4.60;;;;;;;22.42;70.92;96899.91;5063010;28;20453;-65
2022/07/01 04:56:49;;;;;;;11.32;4.68;;;;;;;23.20;70.21;96953.84;5063727;28;20068;-65
2022/07/01 04:59:16;;;;;;;6.72;4.32;;;;;;;23.35;68.25;96952.13;5062029;28;20053;-65
2022/07/01 05:01:44;;;;;;;5.07;3.63;;;;;;;23.23;68.27;96947.28;5063603;28;20053;-65
2022/07/01 05:04:12;;;;;;;5.80;3.80;;;;;;;22.79;68.39;96872.09;5062109;28;20068;-65
2022/07/01 05:06:39;;;;;;;7.82;4.07;;;;;;;22.77;67.37;96840.69;5063542;28;20079;-64
2022/07/01 05:09:07;;;;;;;7.70;3.83;;;;;;;23.56;67.35;96954.22;5061898;28;20057;-65
2022/07/01 05:11:33;;;;;;;6.07;4.90;;;;;;;23.19;67.17;96873.16;5063338;28;20574;-65
2022/07/01 05:14:00;;;;;;;5.88;4.10;;;;;;;23.59;66.05;96896.75;5063055;28;20076;-65
2022/07/01 05:16:27;;;;;;;6.10;4.22;;;;;;;23.83;65.76;96940.31;5063094;28;20134;-65
2022/07/01 05:21:58;;;;;;;7.45;4.50;;;;;;;24.41;65.20;96964.00;5066632;28;20132;-65
2022/07/01 05:24:28;;;;;;;6.32;4.57;;;;;;;22.76;64.14;96678.13;5066479;28;20059;-64
2022/07/01 05:26:56;;;;;;;7.50;4.50;;;;;;;24.78;64.04;96960.13;5065349;28;20068;-64
2022/07/01 05:29:23;;;;;;;6.32;4.43;;;;;;;24.80;63.62;96951.94;5066361;28;20048;-65
2022/07/01 05:31:50;;;;;;;5.10;4.60;;;;;;;25.01;62.44;96950.28;5066383;28;20142;-65
2022/07/01 05:34:17;;;;;;;5.45;4.15;;;;;;;25.21;62.30;96948.59;5064703;28;20463;-67
2022/07/01 05:36:43;;;;;;;7.15;4.13;;;;;;;25.15;62.19;96907.94;5064979;28;21214;-64
2022/07/01 05:39:11;;;;;;;10.90;5.25;;;;;;;25.24;61.42;96907.97;5066552;28;20053;-64
2022/07/01 05:41:38;;;;;;;7.35;4.82;;;;;;;25.44;60.55;96915.25;5065156;28;20056;-65
2022/07/01 05:44:05;;;;;;;8.35;4.68;;;;;;;25.87;60.29;96946.19;5065162;28;20056;-66
2022/07/01 05:46:32;;;;;;;6.80;5.20;;;;;;;25.70;59.91;96910.88;5064665;28;20503;-65
2022/07/01 05:48:59;;;;;;;7.40;4.70;;;;;;;26.08;59.46;96962.28;5066289;28;20091;-64
2022/07/01 05:51:26;;;;;;;5.95;4.82;;;;;;;26.07;59.86;96935.13;5064766;28;20052;-65
2022/07/01 05:53:54;;;;;;;7.30;5.60;;;;;;;25.71;59.12;96838.66;5065956;28;20054;-63
2022/07/01 05:56:20;;;;;;;5.95;5.20;;;;;;;26.18;59.11;96904.19;5066017;28;20067;-64
2022/07/01 05:58:47;;;;;;;7.72;5.18;;;;;;;25.88;59.36;96828.53;5064845;28;20060;-64
2022/07/01 06:01:14;;;;;;;5.80;5.25;;;;;;;26.65;59.77;96952.72;5064332;28;20060;-65
2022/07/01 06:03:41;;;;;;;5.82;5.13;;;;;;;26.80;59.94;96953.63;5066288;28;20400;-65
2022/07/01 06:06:08;;;;;;;8.88;4.90;;;;;;;26.17;59.11;96803.25;5065850;28;20052;-64
2022/07/01 06:08:35;;;;;;;6.30;4.70;;;;;;;27.18;58.40;96950.09;5065241;28;20052;-65
2022/07/01 06:11:03;;;;;;;6.30;5.65;;;;;;;27.07;58.21;96921.41;5064395;28;20148;-66
2022/07/01 06:13:30;;;;;;;8.90;6.60;;;;;;;27.14;58.47;96893.38;5065817;28;20048;-65
2022/07/01 06:15:58;;;;;;;6.53;5.20;;;;;;;27.14;57.83;96876.31;5065681;28;20097;-65
2022/07/01 06:18:26;;;;;;;5.68;5.18;;;;;;;27.62;56.93;96923.44;5063888;28;20092;-65
2022/07/01 06:20:52;;;;;;;5.80;5.20;;;;;;;27.69;57.10;96911.69;5063932;28;20075;-68
2022/07/01 06:23:19;;;;;;;10.45;6.05;;;;;;;27.60;57.40;96868.28;5064989;28;20048;-65
2022/07/01 06:25:46;;;;;;;6.63;5.53;;;;;;;27.80;57.09;96854.97;5065401;28;20079;-65
2022/07/01 06:28:13;;;;;;;10.18;5.72;;;;;;;28.14;56.78;96894.22;5064863;28;20044;-65
2022/07/01 06:30:43;;;;;;;6.05;5.45;;;;;;;28.11;56.60;96892.34;5063711;28;20063;-64
2022/07/01 06:33:11;;;;;;;12.00;6.50;;;;;;;28.43;56.68;96889.78;5065675;28;20056;-65
2022/07/01 06:35:38;;;;;;;7.32;5.63;;;;;;;27.53;56.15;96769.84;5063397;28;20060;-66
2022/07/01 06:38:05;;;;;;;8.48;5.90;;;;;;;28.09;54.89;96803.72;5064917;28;20048;-66
2022/07/01 06:40:32;;;;;;;5.82;5.32;;;;;;;28.30;57.47;96903.53;5065324;28;20455;-66
2022/07/01 06:42:58;;;;;;;8.80;5.35;;;;;;;27.88;56.28;96787.81;5063965;28;20128;-65
2022/07/01 06:45:25;;;;;;;8.30;5.75;;;;;;;28.89;56.23;96907.94;5064916;28;20139;-66
2022/07/01 06:47:52;;;;;;;5.85;5.22;;;;;;;29.06;54.72;96931.78;5064107;28;20044;-64
2022/07/01 06:50:19;;;;;;;6.30;5.18;;;;;;;28.55;54.37;96906.59;5064946;28;20041;-66
2022/07/01 06:52:46;;;;;;;5.97;5.40;;;;;;;29.06;52.67;96903.25;5063181;28;20060;-65
2022/07/01 06:55:12;;;;;;;6.13;4.63;;;;;;;28.89;50.90;96850.88;5064354;28;20052;-65
2022/07/01 06:57:39;;;;;;;8.30;4.55;;;;;;;29.06;49.73;96857.63;5063222;28;20052;-64
2022/07/01 07:00:06;;;;;;;7.25;4.75;;;;;;;29.72;50.16;96932.00;5064868;28;20053;-64
2022/07/01 07:02:33;;;;;;;6.57;4.63;;;;;;;29.61;48.75;96906.91;5045337;28;20064;-65
2022/07/01 07:05:00;;;;;;;4.57;4.18;;;;;;;29.55;45.96;96912.56;5064663;28;20048;-64
2022/07/01 07:07:28;;;;;;;4.65;4.22;;;;;;;29.84;45.26;96934.50;5063435;28;20052;-64
2022/07/01 07:09:56;;;;;;;3.92;3.63;;;;;;;30.13;46.07;96922.09;5063975;28;20513;-64
2022/07/01 07:12:24;;;;;;;4.20;3.83;;;;;;;30.26;44.72;96914.72;5063255;28;20766;-65
2022/07/01 07:14:51;;;;;;;6.40;4.15;;;;;;;30.24;43.26;96842.97;5064355;28;20061;-66
2022/07/01 07:17:18;;;;;;;4.18;3.78;;;;;;;30.17;43.46;96874.88;5062407;28;20057;-65
2022/07/01 07:19:45;;;;;;;5.38;4.38;;;;;;;30.74;43.40;96898.56;5062604;28;20175;-65
2022/07/01 07:22:12;;;;;;;7.18;3.88;;;;;;;31.46;40.24;96929.81;5063988;28;20052;-66
2022/07/01 07:24:38;;;;;;;4.60;4.03;;;;;;;31.18;39.60;96897.31;5063980;28;20105;-66
2022/07/01 07:27:06;;;;;;;7.00;4.50;;;;;;;30.40;39.31;96805.19;5064082;28;20056;-65
2022/07/01 07:29:33;;;;;;;4.30;4.00;;;;;;;31.19;39.62;96931.16;5062782;28;20507;-66
2022/07/01 07:31:59;;;;;;;4.53;4.13;;;;;;;31.10;40.25;96902.72;5064301;28;20597;-65
2022/07/01 07:34:26;;;;;;;4.55;3.97;;;;;;;31.18;39.74;96900.16;5064024;28;20056;-65
2022/07/01 07:36:53;;;;;;;5.00;4.15;;;;;;;31.45;39.99;96925.34;5062561;28;20063;-65
2022/07/01 07:39:19;;;;;;;4.22;3.58;;;;;;;31.19;39.19;96853.09;5063880;28;20069;-65
2022/07/01 07:41:46;;;;;;;3.90;3.70;;;;;;;31.75;36.44;96924.47;5063786;28;20056;-65
2022/07/01 07:44:13;;;;;;;4.20;3.88;;;;;;;31.06;36.00;96815.53;5055022;28;20049;-69
2022/07/01 07:46:40;;;;;;;4.63;4.15;;;;;;;32.04;35.77;96918.34;5042485;28;20488;-66
2022/07/01 07:49:07;;;;;;;6.88;3.50;;;;;;;31.28;36.16;96804.19;5043745;28;20079;-65
2022/07/01 07:51:34;;;;;;;4.97;4.35;;;;;;;31.35;36.20;96812.31;5043528;28;20049;-65
2022/07/01 07:54:02;;;;;;;4.60;4.05;;;;;;;32.13;35.90;96921.00;5042543;28;20110;-66
2022/07/01 07:56:31;;;;;;;5.97;3.90;;;;;;;31.78;35.63;96856.75;5043011;28;20048;-66
2022/07/01 07:58:58;;;;;;;4.65;4.25;;;;;;;31.66;36.52;96872.34;5043739;28;20496;-65
2022/07/01 08:01:25;;;;;;;4.85;4.40;;;;;;;31.78;35.29;96854.66;5043834;28;20502;-65
2022/07/01 08:03:52;;;;;;;5.18;4.53;;;;;;;32.08;34.40;96912.38;5042232;28;20052;-66
2022/07/01 08:06:19;;;;;;;5.32;4.50;;;;;;;31.96;33.97;96842.75;5042122;28;20061;-66
2022/07/01 08:08:46;;;;;;;4.00;3.80;;;;;;;32.97;31.06;96919.84;5043708;28;20577;-66
2022/07/01 08:11:13;;;;;;;4.40;4.00;;;;;;;32.47;31.74;96840.78;5044051;28;20059;-67
2022/07/01 08:13:40;;;;;;;7.63;4.20;;;;;;;32.46;32.87;96925.25;5044094;28;20234;-66
2022/07/01 08:16:07;;;;;;;4.57;4.18;;;;;;;32.59;32.47;96917.72;5042394;28;20496;-66
2022/07/01 08:18:34;;;;;;;4.43;4.13;;;;;;;32.95;29.35;96925.31;5043196;28;20053;-66
2022/07/01 08:21:01;;;;;;;5.13;4.63;;;;;;;32.06;28.60;96846.16;5043269;28;20676;-66
2022/07/01 08:23:28;;;;;;;7.30;4.70;;;;;;;32.90;30.28;96917.47;5042838;28;20152;-67
2022/07/01 08:25:55;;;;;;;6.05;4.97;;;;;;;33.23;29.56;96828.41;5043211;28;20053;-66
2022/07/01 08:28:22;;;;;;;4.50;4.18;;;;;;;33.75;27.96;96794.78;5043420;28;20053;-66
2022/07/01 08:30:48;;;;;;;7.28;4.55;;;;;;;34.20;28.84;96811.78;5042269;28;20080;-69
2022/07/01 08:33:15;;;;;;;5.90;5.43;;;;;;;35.06;28.80;96911.63;5041985;28;20576;-66
2022/07/01 08:35:42;;;;;;;6.45;5.35;;;;;;;35.69;28.47;96917.81;5043066;28;20076;-66
2022/07/01 08:38:09;;;;;;;5.72;4.90;;;;;;;34.66;29.76;96886.53;5043376;28;20044;-66
2022/07/01 08:40:36;;;;;;;18.75;5.60;;;;;;;34.76;29.61;96835.94;5041960;28;20053;-67
2022/07/01 08:43:05;;;;;;;5.60;5.13;;;;;;;34.22;30.48;96938.59;5042649;28;20063;-65
2022/07/01 08:45:35;;;;;;;5.53;5.05;;;;;;;31.19;31.00;96490.31;5061320;28;20126;-66
2022/07/01 08:48:03;;;;;;;8.68;6.30;;;;;;;31.72;31.51;96609.56;5062060;28;20048;-65
2022/07/01 08:50:34;;;;;;;10.90;6.75;;;;;;;33.67;31.14;96862.75;5063442;28;20542;-66
2022/07/01 08:53:01;;;;;;;5.32;4.82;;;;;;;33.61;30.56;96813.16;5067270;28;20079;-65
2022/07/01 08:55:28;;;;;;;6.43;5.82;;;;;;;33.33;31.29;96838.31;5065169;28;20066;-65
2022/07/01 08:57:55;;;;;;;5.72;4.78;;;;;;;34.33;30.79;96919.19;5065695;28;20064;-65
2022/07/01 09:00:28;;;;;;;9.57;4.82;;;;;;;34.57;29.66;96958.81;5067136;28;20060;-65
2022/07/01 09:03:03;;;;;;;5.28;4.97;;;;;;;34.17;29.53;96847.38;5066075;28;20048;-66
2022/07/01 09:05:31;;;;;;;5.70;4.82;;;;;;;32.54;29.47;96608.66;5066827;28;20477;-66
2022/07/01 09:08:04;;;;;;;6.22;4.72;;;;;;;31.93;31.01;96597.31;5067209;28;20053;-66
2022/07/01 09:10:35;;;;;;;11.60;5.10;;;;;;;33.78;32.55;96868.47;5066777;28;20053;-65
2022/07/01 09:13:07;;;;;;;5.90;5.25;;;;;;;33.53;31.14;96800.66;5065836;28;20057;-65
2022/07/01 09:15:35;;;;;;;5.03;4.15;;;;;;;34.61;29.99;96927.66;5066852;28;20059;-66
2022/07/01 09:18:13;;;;;;;6.32;5.75;;;;;;;33.36;32.30;96802.78;5066965;28;20052;-66
2022/07/01 09:20:43;;;;;;;5.30;4.80;;;;;;;33.53;33.80;96927.06;5065052;28;20048;-64
2022/07/01 09:23:12;;;;;;;8.68;5.45;;;;;;;34.32;31.89;96928.34;5065722;28;20090;-65
2022/07/01 09:25:47;;;;;;;5.85;5.10;;;;;;;33.37;31.82;96833.06;5066505;28;20431;-67
2022/07/01 09:28:24;;;;;;;7.37;5.03;;;;;;;32.45;32.98;96795.41;5067275;28;20048;-65
2022/07/01 09:30:56;;;;;;;5.75;4.85;;;;;;;33.99;31.59;96934.28;5066704;28;20338;-66
2022/07/01 09:33:28;;;;;;;6.13;5.63;;;;;;;32.42;32.40;96644.44;5065493;28;20058;-67
2022/07/01 09:35:56;;;;;;;5.05;4.50;;;;;;;34.44;31.23;96919.16;5065085;28;20160;-66
2022/07/01 09:38:24;;;;;;;5.05;4.60;;;;;;;34.36;31.80;96917.31;5064947;28;20447;-66
2022/07/01 09:41:03;;;;;;;5.30;4.88;;;;;;;34.68;31.54;96901.19;5065040;28;20052;-66
2022/07/01 09:43:33;;;;;;;6.50;5.90;;;;;;;34.14;30.96;96839.81;5064288;28;20138;-65
2022/07/01 09:46:11;;;;;;;6.35;4.90;;;;;;;34.85;31.17;96913.34;5044972;28;20053;-65
2022/07/01 09:48:38;;;;;;;5.63;5.22;;;;;;;34.91;30.61;96922.75;5045006;28;20581;-65
2022/07/01 09:51:07;;;;;;;11.15;7.80;;;;;;;34.88;30.60;96906.53;5044594;28;20060;-66
2022/07/01 09:53:40;;;;;;;5.82;5.25;;;;;;;33.68;31.82;96760.09;5044922;28;20291;-65
2022/07/01 09:56:07;;;;;;;8.60;6.95;;;;;;;33.94;30.54;96719.44;5045504;28;20065;-66
2022/07/01 09:58:35;;;;;;;5.95;5.55;;;;;;;35.21;30.17;96893.91;5044523;28;20056;-66
2022/07/01 10:01:03;;;;;;;6.22;5.30;;;;;;;34.94;30.31;96921.66;5044626;28;20071;-66
2022/07/01 10:03:32;;;;;;;10.43;5.53;;;;;;;34.38;31.92;96920.47;5043866;28;20051;-65
2022/07/01 10:06:08;;;;;;;6.82;5.35;;;;;;;35.11;30.99;96910.78;5044293;28;20147;-67
2022/07/01 10:09:04;;;;;;;5.90;5.50;;;;;;;32.03;31.87;96646.56;5046097;28;20055;-65
2022/07/01 10:11:43;;;;;;;8.40;5.80;;;;;;;34.76;31.32;96877.03;5037717;28;20049;-67
2022/07/01 10:14:13;;;;;;;5.82;5.30;;;;;;;34.89;30.58;96862.81;5044672;28;20060;-65
2022/07/01 10:16:40;;;;;;;8.35;5.72;;;;;;;34.59;31.15;96801.56;5051383;28;20053;-66
2022/07/01 10:19:27;;;;;;;9.98;6.13;;;;;;;34.31;30.92;96797.31;5044241;28;20048;-66
2022/07/01 10:21:58;;;;;;;6.05;5.45;;;;;;;35.70;29.76;96907.81;5045550;28;20057;-66
2022/07/01 10:24:26;;;;;;;5.70;5.03;;;;;;;35.96;30.13;96887.88;5045463;28;20056;-66
2022/07/01 10:27:00;;;;;;;5.63;5.20;;;;;;;35.25;28.86;96722.34;5043820;28;20053;-66
2022/07/01 10:29:31;;;;;;;5.78;4.90;;;;;;;36.67;28.43;96882.41;5044022;28;20060;-66
2022/07/01 10:32:02;;;;;;;5.78;5.38;;;;;;;37.23;28.29;96883.03;5045974;28;20075;-64
2022/07/01 10:34:40;;;;;;;6.03;5.28;;;;;;;37.86;27.58;96873.44;5045463;28;20060;-65
2022/07/01 10:37:11;;;;;;;5.93;5.43;;;;;;;37.25;28.08;96842.81;5044110;28;20061;-65
2022/07/01 10:40:00;;;;;;;10.13;5.93;;;;;;;37.28;27.25;96882.16;5045561;28;20147;-66
2022/07/01 10:42:31;;;;;;;6.05;5.55;;;;;;;36.41;27.86;96805.13;5045218;28;20409;-65
2022/07/01 10:45:11;;;;;;;7.50;6.88;;;;;;;35.91;29.20;96776.25;5045341;28;20049;-64
2022/07/01 10:47:39;;;;;;;6.40;5.32;;;;;;;35.91;29.13;96882.16;5043660;28;20052;-67
2022/07/01 10:50:13;;;;;;;6.97;5.85;;;;;;;35.26;30.36;96861.38;5043691;28;20834;-65
2022/07/01 10:52:57;;;;;;;;;;;;;;;35.90;30.50;96875.59;5045818;28;20057;-64
2022/07/01 10:55:36;;;;;;;5.40;5.00;;;;;;;36.13;30.88;96848.03;5043456;28;19924;-65
2022/07/01 10:58:03;;;;;;;6.30;5.75;;;;;;;36.64;30.99;96868.28;5045484;28;20057;-65
2022/07/01 11:00:32;;;;;;;5.43;4.93;;;;;;;35.54;30.60;96776.19;5043584;28;20507;-65
2022/07/01 11:03:13;;;;;;;7.57;5.50;;;;;;;35.75;30.96;96869.50;5045202;28;20064;-65
2022/07/01 11:05:42;;;;;;;11.10;5.70;;;;;;;35.64;31.29;96829.28;5045285;28;20061;-65
2022/07/01 11:08:11;;;;;;;7.05;6.35;;;;;;;35.71;31.55;96828.66;5043593;28;20063;-65
2022/07/01 11:10:43;;;;;;;6.35;5.75;;;;;;;35.87;30.88;96859.41;5045009;28;20049;-66
2022/07/01 11:13:14;;;;;;;7.15;5.82;;;;;;;36.08;30.42;96862.53;5043424;28;20052;-66
2022/07/01 11:15:44;;;;;;;6.82;6.22;;;;;;;34.76;30.89;96830.19;5043084;28;20060;-65
2022/07/01 11:18:12;;;;;;;6.28;5.78;;;;;;;34.08;31.97;96804.56;5044712;28;20053;-68
2022/07/01 11:20:39;;;;;;;5.43;4.90;;;;;;;34.33;32.07;96792.59;5042873;28;20095;-65
2022/07/01 11:23:05;;;;;;;6.53;5.63;;;;;;;35.23;30.86;96863.25;5044722;28;20435;-66
2022/07/01 11:25:32;;;;;;;6.50;5.90;;;;;;;35.08;30.58;96800.31;5044649;28;20056;-65
2022/07/01 11:27:59;;;;;;;6.85;6.32;;;;;;;35.46;30.05;96861.72;5043599;28;20435;-66
2022/07/01 11:30:26;;;;;;;9.00;6.50;;;;;;;35.20;29.10;96795.22;5042948;28;20045;-67
2022/07/01 11:32:55;;;;;;;7.80;6.57;;;;;;;35.99;29.36;96840.63;5044854;28;20049;-67
2022/07/01 11:41:05;;;;;;;6.13;5.72;;;;;;;35.82;29.53;96851.56;5044263;28;20049;-66
2022/07/01 11:43:39;;;;;;;6.82;6.13;;;;;;;36.32;30.68;96845.94;5044323;28;20053;-65
2022/07/01 11:46:07;;;;;;;6.50;5.90;;;;;;;36.66;30.57;96845.41;5042483;28;20144;-66
2022/07/01 11:48:42;;;;;;;8.95;5.55;;;;;;;36.91;29.51;96841.06;5042606;28;20053;-65
2022/07/01 11:51:14;;;;;;;6.43;5.93;;;;;;;36.98;30.09;96835.41;5042651;28;20140;-66